Marple, United Kingdom
Current Conditions -  °F | °C
As of 4:20 PM on Monday 26 Jan 2015 (Local Time) from EGCC Reporting Station
Light Rain Light Rain  
Wind Chill: 36°   Ceiling: 2400
Heat Index: 43°   Visibility: 6mi
Dew Point: 37°   Wind: 13mph
Humidity: 81%   Direction: 300°WNW
Pressure: 30.24"   Gusts: NA
Location:  53.39°N, 2.06°W
Report Text: EGCC 261620Z 30011KT 9999 6000NW -RADZ FEW019 BKN024 06/03 Q1024 NOSIG
Loading
Personal Weather Stations






























Interactive Weather Map New forecast layout! Learn more

10-Day Weather Forecast

Advertisements
Track Severe Weather on mobile